Time;durP1;ratioP1;P1;durP2;ratioP2;P2;SDS_P1;SDS_P2;PMS_P1;PMS_P2;Temp;Humidity;BMP_temperature;BMP_pressure;BME280_temperature;BME280_humidity;BME280_pressure;Samples;Min_cycle;Max_cycle;Signal;HPM_P1;HPM_P2
2022/09/06 00:00:10;;;;;;;12.40;9.20;;;20.70;99.90;;;;;;6156724;23;20450;-85
2022/09/06 00:02:37;;;;;;;10.87;9.77;;;20.70;99.90;;;;;;6162102;23;20414;-84
2022/09/06 00:05:05;;;;;;;15.50;10.33;;;20.70;99.90;;;;;;6170209;23;20412;-84
2022/09/06 00:07:33;;;;;;;14.33;11.30;;;20.60;99.90;;;;;;6159635;23;20415;-85
2022/09/06 00:10:00;;;;;;;14.37;9.53;;;20.70;99.90;;;;;;6158578;23;20421;-85
2022/09/06 00:12:27;;;;;;;14.13;10.37;;;20.70;99.90;;;;;;6158153;23;20455;-85
2022/09/06 00:14:54;;;;;;;11.00;9.90;;;20.60;99.90;;;;;;6156117;23;20407;-85
2022/09/06 00:17:21;;;;;;;12.27;10.00;;;20.60;99.90;;;;;;6157519;23;20408;-85
2022/09/06 00:19:48;;;;;;;11.80;9.57;;;20.50;99.90;;;;;;6157218;23;20443;-84
2022/09/06 00:22:15;;;;;;;10.10;9.10;;;20.40;99.90;;;;;;6156566;23;20839;-85
2022/09/06 00:24:43;;;;;;;8.97;8.07;;;20.30;99.90;;;;;;6157813;23;20399;-85
2022/09/06 00:27:10;;;;;;;11.00;9.90;;;20.20;99.90;;;;;;6164280;23;20411;-85
2022/09/06 00:29:36;;;;;;;9.60;8.43;;;20.10;99.90;;;;;;6169695;23;20421;-83
2022/09/06 00:32:03;;;;;;;8.47;7.67;;;20.00;99.90;;;;;;6182416;23;20431;-84
2022/09/06 00:34:30;;;;;;;10.10;9.10;;;20.10;99.90;;;;;;6182187;23;20398;-85
2022/09/06 00:36:57;;;;;;;8.70;7.90;;;20.00;99.90;;;;;;6160473;23;20412;-84
2022/09/06 00:39:23;;;;;;;9.07;7.70;;;20.00;99.90;;;;;;6157957;23;20454;-85
2022/09/06 00:41:52;;;;;;;11.73;8.43;;;20.00;99.90;;;;;;6171669;23;20407;-84
2022/09/06 00:44:18;;;;;;;11.87;8.70;;;20.00;99.90;;;;;;6182114;23;20385;-84
2022/09/06 00:46:47;;;;;;;9.73;7.50;;;19.90;99.90;;;;;;6182055;23;20383;-83
2022/09/06 00:49:23;;;;;;;10.27;8.67;;;19.90;99.90;;;;;;6180521;23;20401;-85
2022/09/06 00:51:52;;;;;;;9.53;8.17;;;19.90;99.90;;;;;;6171049;23;20461;-84
2022/09/06 00:54:19;;;;;;;8.23;7.27;;;19.90;99.90;;;;;;6182711;23;20403;-84
2022/09/06 00:56:46;;;;;;;9.13;8.00;;;19.90;99.90;;;;;;6165576;23;20477;-85
2022/09/06 00:59:16;;;;;;;8.13;7.43;;;19.90;99.90;;;;;;6166971;23;20435;-83
2022/09/06 01:01:43;;;;;;;11.90;7.77;;;19.90;99.90;;;;;;6159764;23;20529;-85
2022/09/06 01:04:09;;;;;;;9.90;8.90;;;19.80;99.90;;;;;;6159220;23;20406;-85
2022/09/06 01:06:45;;;;;;;10.50;7.70;;;19.80;99.90;;;;;;6158140;23;20969;-84
2022/09/06 01:09:25;;;;;;;13.23;8.73;;;19.80;99.90;;;;;;6173633;23;20387;-85
2022/09/06 01:12:07;;;;;;;8.20;7.50;;;19.80;99.90;;;;;;6184452;23;20494;-85
2022/09/06 01:14:47;;;;;;;13.23;8.43;;;19.80;99.90;;;;;;6182714;23;20391;-84
2022/09/06 01:17:28;;;;;;;7.43;6.30;;;19.80;99.90;;;;;;6183728;23;20387;-84
2022/09/06 01:20:46;;;;;;;9.50;8.07;;;19.90;99.90;;;;;;6174666;23;20431;-85
2022/09/06 01:23:52;;;;;;;15.73;8.27;;;19.90;99.90;;;;;;6134230;23;20415;-85
2022/09/06 01:26:55;;;;;;;12.80;8.60;;;19.70;99.90;;;;;;6130934;23;20856;-85
2022/09/06 01:29:29;;;;;;;9.93;6.83;;;19.70;99.90;;;;;;6129197;23;20926;-85
2022/09/06 01:32:03;;;;;;;10.97;8.20;;;19.70;99.90;;;;;;6128592;23;20818;-86
2022/09/06 01:34:35;;;;;;;11.73;8.77;;;19.60;99.90;;;;;;6131859;23;20396;-82
2022/09/06 01:37:05;;;;;;;8.17;7.43;;;19.60;99.90;;;;;;6152326;23;20642;-84
2022/09/06 01:39:34;;;;;;;8.03;7.30;;;19.60;99.90;;;;;;6142799;23;20463;-84
2022/09/06 01:42:05;;;;;;;11.90;8.43;;;19.50;99.90;;;;;;6139923;23;20433;-84
2022/09/06 01:44:35;;;;;;;9.00;8.20;;;19.50;99.90;;;;;;6131878;23;20832;-84
2022/09/06 01:47:13;;;;;;;10.73;8.60;;;19.50;99.90;;;;;;6128892;23;20400;-85
2022/09/06 01:49:54;;;;;;;10.33;8.33;;;19.50;99.90;;;;;;6137157;23;20381;-84
2022/09/06 01:52:31;;;;;;;8.33;7.40;;;19.50;99.90;;;;;;6145286;23;20407;-84
2022/09/06 01:55:10;;;;;;;12.43;9.73;;;19.50;99.90;;;;;;6141194;23;20392;-84
2022/09/06 01:58:05;;;;;;;12.20;8.43;;;19.50;99.90;;;;;;6143510;23;20376;-83
2022/09/06 02:00:39;;;;;;;10.10;9.10;;;19.40;99.90;;;;;;6153862;23;20455;-82
2022/09/06 02:03:13;;;;;;;8.80;7.90;;;19.40;99.90;;;;;;6153798;23;20383;-83
2022/09/06 02:05:43;;;;;;;8.97;8.07;;;19.50;99.90;;;;;;6153780;23;20376;-83
2022/09/06 02:08:15;;;;;;;10.83;9.60;;;19.50;99.90;;;;;;6153923;23;20408;-83
2022/09/06 02:10:45;;;;;;;11.67;9.87;;;19.50;99.90;;;;;;6151074;23;20430;-84
2022/09/06 02:13:14;;;;;;;10.00;8.47;;;19.50;99.90;;;;;;6130100;23;20396;-85
2022/09/06 02:15:47;;;;;;;10.27;9.27;;;19.50;99.90;;;;;;6129810;23;20888;-84
2022/09/06 02:18:17;;;;;;;11.73;9.47;;;19.50;99.90;;;;;;6146696;23;20399;-85
2022/09/06 02:20:49;;;;;;;9.83;8.93;;;19.40;99.90;;;;;;6137214;23;20454;-85
2022/09/06 02:23:17;;;;;;;9.03;7.90;;;19.50;99.90;;;;;;6157830;23;20404;-85
2022/09/06 02:25:50;;;;;;;7.87;6.77;;;19.50;99.90;;;;;;6155764;23;20917;-85
2022/09/06 02:28:17;;;;;;;10.43;5.97;;;19.60;99.90;;;;;;6156759;23;20399;-84
2022/09/06 02:30:49;;;;;;;6.73;6.20;;;19.60;99.90;;;;;;6156365;23;20439;-85
2022/09/06 02:33:19;;;;;;;6.00;5.40;;;19.80;99.90;;;;;;6157395;23;20690;-84
2022/09/06 02:35:48;;;;;;;7.53;6.13;;;19.90;99.90;;;;;;6156144;23;20407;-85
2022/09/06 02:38:16;;;;;;;6.13;5.60;;;19.90;99.90;;;;;;6158305;23;20752;-85
2022/09/06 02:40:45;;;;;;;6.50;6.00;;;19.90;99.90;;;;;;6162397;23;20446;-84
2022/09/06 02:43:12;;;;;;;6.77;6.10;;;19.90;99.90;;;;;;6164989;23;20387;-84
2022/09/06 02:45:39;;;;;;;7.90;6.80;;;20.00;99.90;;;;;;6160361;23;20414;-85
2022/09/06 02:48:07;;;;;;;7.90;6.97;;;20.10;99.90;;;;;;6161378;23;20399;-85
2022/09/06 02:50:34;;;;;;;11.10;7.67;;;20.10;99.90;;;;;;6159373;23;20761;-84
2022/09/06 02:53:03;;;;;;;15.70;7.60;;;20.10;99.90;;;;;;6155960;23;20411;-85
2022/09/06 02:55:29;;;;;;;9.77;7.37;;;20.00;99.90;;;;;;6155862;23;20474;-85
2022/09/06 02:57:56;;;;;;;10.27;7.47;;;20.00;99.90;;;;;;6163667;23;20414;-85
2022/09/06 03:00:23;;;;;;;8.90;7.50;;;19.90;99.90;;;;;;6176357;23;20439;-85
2022/09/06 03:02:49;;;;;;;13.30;9.80;;;19.70;99.90;;;;;;6162343;23;20423;-84
2022/09/06 03:05:17;;;;;;;11.20;8.57;;;19.70;99.90;;;;;;6155459;23;20424;-84
2022/09/06 03:07:44;;;;;;;10.07;7.77;;;19.50;99.90;;;;;;6155513;23;20442;-84
2022/09/06 03:10:11;;;;;;;10.50;8.40;;;19.30;99.90;;;;;;6160201;23;20410;-84
2022/09/06 03:12:38;;;;;;;9.00;7.67;;;19.20;99.90;;;;;;6156422;23;20407;-86
2022/09/06 03:15:05;;;;;;;9.27;8.37;;;19.10;99.90;;;;;;6155738;23;20411;-85
2022/09/06 03:17:32;;;;;;;10.10;9.10;;;19.00;99.90;;;;;;6157345;23;20423;-85
2022/09/06 03:19:59;;;;;;;8.73;7.87;;;18.90;99.90;;;;;;6156098;23;20443;-84
2022/09/06 03:22:27;;;;;;;11.90;9.60;;;19.00;99.90;;;;;;6155880;23;20953;-84
2022/09/06 03:24:53;;;;;;;8.73;7.80;;;18.90;99.90;;;;;;6156014;23;20499;-84
2022/09/06 03:27:20;;;;;;;8.80;7.97;;;18.80;99.90;;;;;;6157195;23;20419;-84
2022/09/06 03:29:47;;;;;;;11.90;9.70;;;18.80;99.90;;;;;;6156856;23;20803;-83
2022/09/06 03:32:13;;;;;;;10.73;9.27;;;18.80;99.90;;;;;;6156710;23;20439;-84
2022/09/06 03:34:40;;;;;;;8.07;7.37;;;18.80;99.90;;;;;;6167995;23;20442;-83
2022/09/06 03:37:07;;;;;;;11.33;9.30;;;18.80;99.90;;;;;;6155973;23;20404;-84
2022/09/06 03:39:35;;;;;;;10.83;9.80;;;18.90;99.90;;;;;;6154062;23;20442;-84
2022/09/06 03:42:02;;;;;;;11.53;9.80;;;18.90;99.90;;;;;;6155768;23;20435;-85
2022/09/06 03:44:29;;;;;;;10.93;10.00;;;18.80;99.90;;;;;;6163780;23;20403;-84
2022/09/06 03:46:55;;;;;;;13.53;9.80;;;18.80;99.90;;;;;;6181629;23;20379;-83
2022/09/06 03:49:22;;;;;;;13.03;9.87;;;18.70;99.90;;;;;;6182783;23;20410;-83
2022/09/06 03:51:49;;;;;;;10.23;9.20;;;18.60;99.90;;;;;;6171629;23;20431;-85
2022/09/06 03:54:15;;;;;;;12.60;11.10;;;18.50;99.90;;;;;;6168798;23;20403;-85
2022/09/06 03:56:43;;;;;;;12.10;10.90;;;18.50;99.90;;;;;;6160457;23;20800;-85
2022/09/06 03:59:11;;;;;;;12.17;10.57;;;18.50;99.90;;;;;;6157370;23;20408;-85
2022/09/06 04:01:39;;;;;;;10.90;9.60;;;18.60;99.90;;;;;;6156383;23;20446;-85
2022/09/06 04:04:05;;;;;;;12.77;11.50;;;18.50;99.90;;;;;;6170287;23;20422;-84
2022/09/06 04:06:32;;;;;;;12.73;11.43;;;18.50;99.90;;;;;;6176542;23;20384;-82
2022/09/06 04:08:59;;;;;;;13.17;11.73;;;18.50;99.90;;;;;;6161606;23;20407;-84
2022/09/06 04:11:25;;;;;;;15.07;12.43;;;18.50;99.90;;;;;;6158660;23;20423;-84
2022/09/06 04:13:53;;;;;;;12.33;11.00;;;18.50;99.90;;;;;;6157218;23;20411;-87
2022/09/06 04:16:20;;;;;;;13.43;12.07;;;18.50;99.90;;;;;;6156937;23;20407;-84
2022/09/06 04:18:50;;;;;;;13.87;12.43;;;18.50;99.90;;;;;;6156777;23;20909;-83
2022/09/06 04:21:17;;;;;;;12.30;11.00;;;18.40;99.90;;;;;;6162482;23;20465;-84
2022/09/06 04:23:44;;;;;;;15.00;11.40;;;18.40;99.90;;;;;;6170914;23;20422;-83
2022/09/06 04:26:11;;;;;;;14.40;11.67;;;18.40;99.90;;;;;;6173186;23;20411;-84
2022/09/06 04:28:37;;;;;;;15.40;12.17;;;18.40;99.90;;;;;;6172294;23;20407;-83
2022/09/06 04:31:06;;;;;;;14.20;12.70;;;18.40;99.90;;;;;;6157760;23;20463;-82
2022/09/06 04:33:34;;;;;;;13.97;12.43;;;18.40;99.90;;;;;;6170532;23;20404;-81
2022/09/06 04:36:02;;;;;;;15.37;13.80;;;18.50;99.90;;;;;;6167287;23;20494;-80
2022/09/06 04:38:32;;;;;;;23.23;14.00;;;18.40;99.90;;;;;;6165959;23;20434;-79
2022/09/06 04:40:58;;;;;;;21.30;14.77;;;18.50;99.90;;;;;;6165564;23;20773;-79
2022/09/06 04:43:25;;;;;;;15.07;13.53;;;18.50;99.90;;;;;;6167161;23;20403;-80
2022/09/06 04:45:51;;;;;;;14.87;13.43;;;18.50;99.90;;;;;;6163635;23;20507;-79
2022/09/06 04:48:20;;;;;;;16.63;15.00;;;18.50;99.90;;;;;;6164814;23;20414;-80
2022/09/06 04:50:46;;;;;;;16.50;14.77;;;18.50;99.90;;;;;;6163876;23;20430;-79
2022/09/06 04:53:13;;;;;;;15.50;13.93;;;18.50;99.90;;;;;;6164034;23;20789;-81
2022/09/06 04:55:40;;;;;;;14.87;12.37;;;18.50;99.90;;;;;;6163871;23;20459;-79
2022/09/06 04:58:06;;;;;;;14.87;12.20;;;18.50;99.90;;;;;;6166144;23;20392;-79
2022/09/06 05:00:34;;;;;;;14.80;11.80;;;18.50;99.90;;;;;;6166380;23;20466;-79
2022/09/06 05:03:01;;;;;;;11.50;10.47;;;18.60;99.90;;;;;;6170190;23;20407;-79
2022/09/06 05:05:29;;;;;;;13.57;11.90;;;18.60;99.90;;;;;;6175390;23;20427;-79
2022/09/06 05:07:56;;;;;;;14.23;12.73;;;18.60;99.90;;;;;;6171260;23;20407;-80
2022/09/06 05:10:24;;;;;;;16.50;12.53;;;18.70;99.90;;;;;;6174474;23;20399;-79
2022/09/06 05:12:51;;;;;;;12.97;11.50;;;18.70;99.90;;;;;;6175258;23;20411;-79
2022/09/06 05:15:19;;;;;;;14.93;11.53;;;18.70;99.90;;;;;;6172704;23;21013;-79
2022/09/06 05:17:45;;;;;;;13.60;10.80;;;18.90;99.90;;;;;;6171967;23;20403;-82
2022/09/06 05:20:13;;;;;;;13.50;12.10;;;18.90;99.90;;;;;;6169471;23;20439;-79
2022/09/06 05:22:41;;;;;;;12.20;11.00;;;18.90;99.90;;;;;;6169078;23;20403;-79
2022/09/06 05:25:09;;;;;;;12.87;11.57;;;19.00;99.90;;;;;;6169758;23;20495;-79
2022/09/06 05:27:36;;;;;;;13.60;10.90;;;18.90;99.90;;;;;;6169107;23;20384;-79
2022/09/06 05:30:03;;;;;;;14.70;11.93;;;19.00;99.90;;;;;;6169429;23;20399;-79
2022/09/06 05:32:29;;;;;;;12.17;10.97;;;19.10;99.90;;;;;;6169914;23;20408;-79
2022/09/06 05:34:56;;;;;;;14.20;10.70;;;19.10;99.90;;;;;;6168649;23;20431;-79
2022/09/06 05:37:23;;;;;;;20.10;10.90;;;19.10;99.90;;;;;;6168963;23;20734;-79
2022/09/06 05:39:51;;;;;;;16.80;12.43;;;19.10;99.90;;;;;;6175829;23;20399;-78
2022/09/06 05:42:18;;;;;;;12.93;11.57;;;19.10;99.90;;;;;;6182295;23;20422;-81
2022/09/06 05:44:44;;;;;;;14.83;11.97;;;19.20;99.90;;;;;;6181715;23;20483;-79
2022/09/06 05:47:11;;;;;;;17.60;12.33;;;19.20;99.90;;;;;;6167189;23;20866;-81
2022/09/06 05:49:37;;;;;;;16.00;12.10;;;19.20;99.90;;;;;;6166115;23;20780;-79
2022/09/06 05:52:04;;;;;;;14.93;12.17;;;19.20;99.90;;;;;;6166851;23;20902;-79
2022/09/06 05:54:31;;;;;;;20.40;14.20;;;19.20;99.90;;;;;;6166508;23;20415;-79
2022/09/06 05:56:59;;;;;;;19.63;12.73;;;19.30;99.90;;;;;;6166340;23;20413;-80
2022/09/06 05:59:26;;;;;;;17.80;13.17;;;19.30;99.90;;;;;;6156717;23;20422;-86
2022/09/06 06:01:53;;;;;;;16.73;12.33;;;19.40;99.90;;;;;;6156870;23;20474;-86
2022/09/06 06:04:21;;;;;;;15.03;11.30;;;19.40;99.90;;;;;;6157328;23;20791;-86
2022/09/06 06:06:48;;;;;;;15.10;11.30;;;19.50;99.90;;;;;;6157488;23;20419;-85
2022/09/06 06:09:15;;;;;;;25.20;13.20;;;19.50;99.90;;;;;;6175450;23;20403;-85
2022/09/06 06:11:43;;;;;;;15.17;11.50;;;19.50;99.90;;;;;;6172170;23;20406;-86
2022/09/06 06:14:11;;;;;;;16.50;11.93;;;19.60;99.90;;;;;;6156119;23;20416;-86
2022/09/06 06:16:38;;;;;;;12.60;10.37;;;19.60;99.90;;;;;;6155999;23;20423;-85
2022/09/06 06:19:04;;;;;;;20.83;11.80;;;19.60;99.90;;;;;;6158705;23;20416;-85
2022/09/06 06:21:33;;;;;;;14.53;11.50;;;19.60;99.90;;;;;;6158140;23;20502;-85
2022/09/06 06:24:01;;;;;;;14.33;10.13;;;19.60;99.90;;;;;;6158619;23;20987;-86
2022/09/06 06:26:30;;;;;;;16.93;10.13;;;19.70;99.90;;;;;;6160382;23;20434;-85
2022/09/06 06:29:00;;;;;;;14.83;11.50;;;19.80;99.90;;;;;;6159921;23;20403;-85
2022/09/06 06:31:29;;;;;;;21.87;10.57;;;19.90;99.90;;;;;;6159807;23;20402;-85
2022/09/06 06:33:55;;;;;;;16.67;10.60;;;20.00;99.90;;;;;;6161725;23;20408;-86
2022/09/06 06:36:23;;;;;;;18.37;11.47;;;20.10;99.90;;;;;;6159013;23;20443;-86
2022/09/06 06:38:54;;;;;;;20.97;11.20;;;20.10;99.90;;;;;;6156967;23;20419;-86
2022/09/06 06:41:23;;;;;;;15.43;10.80;;;20.20;99.90;;;;;;6157289;23;20442;-86
2022/09/06 06:43:51;;;;;;;11.80;10.53;;;20.40;99.90;;;;;;6156119;23;20423;-86
2022/09/06 06:46:19;;;;;;;19.40;10.60;;;20.40;99.90;;;;;;6168729;23;20438;-85
2022/09/06 06:48:47;;;;;;;11.57;10.40;;;20.50;99.90;;;;;;6172264;23;20399;-86
2022/09/06 06:51:15;;;;;;;15.30;10.93;;;20.50;99.90;;;;;;6159720;23;20414;-86
2022/09/06 06:53:42;;;;;;;16.07;11.60;;;20.60;99.90;;;;;;6179511;23;20403;-85
2022/09/06 06:56:17;;;;;;;26.40;13.27;;;20.90;99.90;;;;;;6165472;23;20462;-85
2022/09/06 06:58:45;;;;;;;12.10;10.00;;;21.20;99.90;;;;;;6159076;23;20430;-85
2022/09/06 07:01:12;;;;;;;8.50;7.60;;;21.50;99.90;;;;;;6156385;23;20446;-85
2022/09/06 07:03:39;;;;;;;10.27;9.23;;;21.70;99.90;;;;;;6156989;23;20714;-85
2022/09/06 07:06:08;;;;;;;11.60;8.37;;;21.90;99.90;;;;;;6156978;23;20438;-86
2022/09/06 07:08:36;;;;;;;9.03;8.00;;;22.20;99.90;;;;;;6158208;23;20414;-85
2022/09/06 07:11:03;;;;;;;10.03;7.37;;;22.50;99.90;;;;;;6157391;23;20409;-86
2022/09/06 07:13:30;;;;;;;9.37;8.47;;;22.60;99.90;;;;;;6162821;23;20411;-84
2022/09/06 07:16:08;;;;;;;10.17;8.10;;;22.60;99.90;;;;;;6160975;23;20432;-87
2022/09/06 07:18:35;;;;;;;9.53;8.53;;;23.20;99.90;;;;;;6159068;23;20803;-85
2022/09/06 07:21:01;;;;;;;8.10;7.30;;;24.10;99.90;;;;;;6163258;23;20470;-85
2022/09/06 07:23:29;;;;;;;9.47;7.43;;;24.30;99.90;;;;;;6182425;23;20420;-83
2022/09/06 07:25:56;;;;;;;9.63;7.73;;;24.60;99.90;;;;;;6183215;23;20492;-85
2022/09/06 07:28:23;;;;;;;10.40;7.87;;;24.50;99.90;;;;;;6181432;23;20408;-85
2022/09/06 07:30:53;;;;;;;18.03;8.70;;;24.60;99.90;;;;;;6159064;23;20849;-86
2022/09/06 07:33:20;;;;;;;9.17;7.80;;;25.10;99.90;;;;;;6168439;23;20382;-85
2022/09/06 07:35:55;;;;;;;8.53;7.67;;;24.90;99.90;;;;;;6172551;23;20733;-85
2022/09/06 07:38:22;;;;;;;8.73;6.60;;;24.80;99.90;;;;;;6160741;23;20432;-86
2022/09/06 07:40:54;;;;;;;8.43;6.77;;;24.50;99.90;;;;;;6176550;23;20437;-85
2022/09/06 07:43:21;;;;;;;8.07;7.27;;;24.20;99.90;;;;;;6183575;23;20368;-84
2022/09/06 07:45:48;;;;;;;8.53;6.50;;;24.20;99.90;;;;;;6183201;23;20403;-86
2022/09/06 07:48:15;;;;;;;8.80;7.73;;;24.40;99.90;;;;;;6182310;23;20477;-86
2022/09/06 07:50:42;;;;;;;9.37;7.47;;;24.90;99.90;;;;;;6174866;23;20450;-86
2022/09/06 07:53:09;;;;;;;7.80;7.07;;;25.40;99.90;;;;;;6166828;23;20421;-87
2022/09/06 07:55:36;;;;;;;8.20;7.30;;;25.30;99.90;;;;;;6163503;23;20425;-85
2022/09/06 07:58:04;;;;;;;9.90;7.60;;;25.10;99.90;;;;;;6160631;23;20407;-84
2022/09/06 08:00:31;;;;;;;10.43;7.00;;;25.10;99.90;;;;;;6166373;23;20411;-85
2022/09/06 08:02:58;;;;;;;8.10;7.30;;;25.00;99.90;;;;;;6164245;23;20501;-85
2022/09/06 08:05:25;;;;;;;8.13;6.73;;;25.10;99.90;;;;;;6170176;23;20430;-85
2022/09/06 08:07:52;;;;;;;9.77;7.30;;;25.20;99.90;;;;;;6168447;23;20442;-85
2022/09/06 08:10:19;;;;;;;13.03;6.80;;;25.20;99.90;;;;;;6161853;23;20411;-86
2022/09/06 08:12:45;;;;;;;13.80;7.40;;;25.50;99.90;;;;;;6158752;23;20754;-85
2022/09/06 08:15:13;;;;;;;8.10;6.87;;;25.60;99.90;;;;;;6159167;23;20426;-86
2022/09/06 08:17:40;;;;;;;7.90;6.33;;;25.90;99.90;;;;;;6159219;23;20416;-86
2022/09/06 08:20:07;;;;;;;7.03;6.27;;;25.80;99.90;;;;;;6160925;23;20793;-85
2022/09/06 08:22:34;;;;;;;10.50;7.50;;;25.80;99.90;;;;;;6159417;23;20454;-85
2022/09/06 08:25:01;;;;;;;7.40;6.40;;;25.80;99.90;;;;;;6158844;23;20950;-85
2022/09/06 08:27:28;;;;;;;7.70;6.53;;;26.10;99.90;;;;;;6158680;23;20414;-85
2022/09/06 08:29:55;;;;;;;6.93;6.27;;;26.10;99.00;;;;;;6175235;23;20403;-84
2022/09/06 08:32:23;;;;;;;11.03;6.53;;;26.30;99.30;;;;;;6182668;23;20401;-84
2022/09/06 08:34:49;;;;;;;7.43;5.97;;;26.60;98.80;;;;;;6182505;23;20413;-83
2022/09/06 08:37:16;;;;;;;6.10;5.50;;;26.90;98.20;;;;;;6176135;23;20390;-84
2022/09/06 08:39:43;;;;;;;10.70;6.20;;;27.80;96.70;;;;;;6169228;23;20390;-85
2022/09/06 08:42:11;;;;;;;9.10;6.00;;;29.70;94.00;;;;;;6180897;23;20431;-84
2022/09/06 08:44:41;;;;;;;11.83;5.83;;;31.60;88.50;;;;;;6168299;23;20410;-86
2022/09/06 08:47:10;;;;;;;8.80;5.60;;;33.30;79.60;;;;;;6166715;23;20409;-86
2022/09/06 08:49:41;;;;;;;6.43;5.00;;;33.40;75.90;;;;;;6162318;23;20518;-86
2022/09/06 08:52:37;;;;;;;5.90;5.30;;;34.10;70.50;;;;;;6160034;23;20392;-87
2022/09/06 08:55:18;;;;;;;10.23;5.33;;;34.80;66.90;;;;;;6158850;23;20456;-84
2022/09/06 08:58:01;;;;;;;6.23;5.30;;;35.60;63.40;;;;;;6172417;23;20404;-83
2022/09/06 09:00:27;;;;;;;7.63;5.47;;;35.60;61.30;;;;;;6168488;23;20718;-84
2022/09/06 09:03:07;;;;;;;7.30;5.70;;;35.00;61.60;;;;;;6168104;23;20444;-85
2022/09/06 09:05:37;;;;;;;6.03;5.40;;;35.00;62.00;;;;;;6161203;23;20945;-87
2022/09/06 09:08:13;;;;;;;6.53;5.37;;;35.30;60.10;;;;;;6157169;23;20418;-85
2022/09/06 09:10:42;;;;;;;6.80;5.13;;;35.00;60.00;;;;;;6155261;23;20454;-85
2022/09/06 09:13:22;;;;;;;8.40;5.50;;;34.80;60.00;;;;;;6155274;23;20410;-86
2022/09/06 09:15:48;;;;;;;7.07;5.77;;;35.00;60.60;;;;;;6156894;23;20435;-86
2022/09/06 09:18:20;;;;;;;6.83;5.37;;;34.60;60.80;;;;;;6158791;23;20730;-86
2022/09/06 09:20:48;;;;;;;6.67;6.03;;;33.80;61.50;;;;;;6169375;23;20364;-85
2022/09/06 09:23:15;;;;;;;7.13;6.00;;;33.40;63.40;;;;;;6183640;23;20459;-85
2022/09/06 09:25:42;;;;;;;6.20;4.83;;;34.00;63.70;;;;;;6183339;23;20487;-85
2022/09/06 09:28:15;;;;;;;9.37;5.30;;;35.00;59.70;;;;;;6174086;23;20404;-86
2022/09/06 09:30:48;;;;;;;7.20;5.43;;;35.60;58.40;;;;;;6159845;23;20374;-86
2022/09/06 09:33:27;;;;;;;8.63;5.17;;;35.00;58.90;;;;;;6159596;23;20382;-86
2022/09/06 09:35:58;;;;;;;10.20;5.40;;;34.40;59.80;;;;;;6159373;23;20436;-86
2022/09/06 09:38:27;;;;;;;6.03;5.43;;;34.00;61.10;;;;;;6160081;23;20394;-87
2022/09/06 09:40:56;;;;;;;6.63;5.77;;;33.40;62.60;;;;;;6162457;23;20462;-86
2022/09/06 09:43:24;;;;;;;8.93;6.53;;;33.10;62.60;;;;;;6161363;23;20460;-86
2022/09/06 09:46:27;;;;;;;7.00;5.30;;;33.20;63.10;;;;;;6159496;23;20744;-86
2022/09/06 09:49:02;;;;;;;5.53;4.50;;;34.00;61.80;;;;;;6159439;23;20404;-86
2022/09/06 09:51:31;;;;;;;9.37;5.50;;;35.30;57.80;;;;;;6158369;23;20397;-86
2022/09/06 09:53:59;;;;;;;5.97;4.07;;;36.30;55.80;;;;;;6158963;23;20413;-85
2022/09/06 09:56:30;;;;;;;7.13;4.97;;;36.40;55.10;;;;;;6164686;23;20488;-86
2022/09/06 09:58:58;;;;;;;8.40;4.40;;;37.80;54.10;;;;;;6163935;23;20398;-86
2022/09/06 10:01:28;;;;;;;4.83;4.30;;;39.00;51.10;;;;;;6173409;23;20447;-86
2022/09/06 10:04:04;;;;;;;5.03;4.10;;;38.50;49.50;;;;;;6164366;23;20426;-85
2022/09/06 10:06:32;;;;;;;5.87;4.23;;;38.10;49.40;;;;;;6157628;23;20917;-85
2022/09/06 10:09:12;;;;;;;6.90;4.40;;;37.30;50.80;;;;;;6157702;23;20420;-85
2022/09/06 10:11:41;;;;;;;4.53;3.33;;;37.90;50.40;;;;;;6157531;23;20389;-85
2022/09/06 10:14:13;;;;;;;4.73;3.77;;;38.10;50.00;;;;;;6156878;23;20417;-84
2022/09/06 10:16:44;;;;;;;7.47;3.93;;;39.00;48.10;;;;;;6156858;23;20437;-85
2022/09/06 10:19:40;;;;;;;7.50;4.00;;;39.70;47.30;;;;;;6157845;23;20435;-86
2022/09/06 10:22:23;;;;;;;8.57;4.80;;;40.00;45.40;;;;;;6156517;23;20742;-85
2022/09/06 10:25:21;;;;;;;5.00;3.27;;;39.50;45.40;;;;;;6156821;23;20420;-86
2022/09/06 10:28:00;;;;;;;4.03;3.47;;;40.10;44.70;;;;;;6157090;23;20607;-86
2022/09/06 10:30:31;;;;;;;4.57;3.70;;;40.20;43.40;;;;;;6161368;23;20398;-85
2022/09/06 10:33:04;;;;;;;6.10;3.80;;;40.30;44.10;;;;;;6182636;23;20399;-85
2022/09/06 10:35:34;;;;;;;9.23;3.90;;;41.00;42.80;;;;;;6162874;23;20443;-87
2022/09/06 10:38:24;;;;;;;6.80;3.40;;;40.70;42.00;;;;;;6164360;23;20407;-87
2022/09/06 10:41:04;;;;;;;5.37;3.60;;;38.00;43.90;;;;;;6160415;23;20440;-86
2022/09/06 10:43:41;;;;;;;5.47;3.33;;;36.60;46.60;;;;;;6167364;23;20478;-86
2022/09/06 10:46:14;;;;;;;7.93;3.93;;;35.80;47.60;;;;;;6183034;23;20453;-86
2022/09/06 10:48:44;;;;;;;5.53;3.40;;;35.30;49.00;;;;;;6174854;23;20401;-86
2022/09/06 10:51:19;;;;;;;5.07;3.70;;;34.80;49.10;;;;;;6161558;23;20726;-89
2022/09/06 10:53:52;;;;;;;6.20;3.30;;;34.60;50.10;;;;;;6163056;23;20453;-88
2022/09/06 10:56:33;;;;;;;7.63;3.53;;;34.70;49.80;;;;;;6162914;23;20457;-88
2022/09/06 10:59:03;;;;;;;6.40;3.93;;;34.80;50.60;;;;;;6162260;23;20414;-87
2022/09/06 11:01:34;;;;;;;5.00;3.37;;;34.70;50.00;;;;;;6176986;23;20769;-87
2022/09/06 11:04:09;;;;;;;7.17;3.73;;;34.40;50.10;;;;;;6178050;23;20376;-87
2022/09/06 11:06:43;;;;;;;5.90;4.07;;;34.10;50.70;;;;;;6166637;23;20432;-88
2022/09/06 11:09:18;;;;;;;4.60;3.20;;;34.10;51.30;;;;;;6158108;23;20506;-87
2022/09/06 11:11:57;;;;;;;7.00;3.23;;;34.00;51.50;;;;;;6162823;23;20396;-87
2022/09/06 11:14:27;;;;;;;6.20;3.60;;;33.90;51.20;;;;;;6178975;23;20425;-85
2022/09/06 11:17:00;;;;;;;5.53;3.60;;;33.60;51.20;;;;;;6171697;23;20434;-87
2022/09/06 11:19:31;;;;;;;6.63;4.17;;;33.40;51.60;;;;;;6160657;23;20402;-88
2022/09/06 11:22:21;;;;;;;6.63;3.73;;;33.40;52.50;;;;;;6162740;23;20422;-89
2022/09/06 11:25:14;;;;;;;6.60;4.13;;;32.90;52.30;;;;;;6176345;23;20390;-84
2022/09/06 11:27:43;;;;;;;6.70;4.00;;;32.60;53.70;;;;;;6183140;23;20422;-84
2022/09/06 11:30:14;;;;;;;5.20;3.40;;;33.90;53.10;;;;;;6166673;23;20428;-88
2022/09/06 11:32:47;;;;;;;6.13;3.33;;;35.10;50.40;;;;;;6161213;23;20406;-86
2022/09/06 11:35:22;;;;;;;4.17;3.30;;;36.00;48.00;;;;;;6160081;23;20442;-87
2022/09/06 11:37:59;;;;;;;4.07;3.23;;;35.70;48.30;;;;;;6175515;23;20374;-87
2022/09/06 11:40:34;;;;;;;4.63;3.60;;;35.20;48.50;;;;;;6172632;23;20791;-88
2022/09/06 11:43:11;;;;;;;4.07;3.30;;;35.10;49.50;;;;;;6174230;23;20432;-86
2022/09/06 11:45:46;;;;;;;6.80;3.80;;;34.60;49.30;;;;;;6159838;23;20806;-87
2022/09/06 11:48:50;;;;;;;7.10;3.80;;;35.00;49.70;;;;;;6159392;23;20472;-88
2022/09/06 11:51:33;;;;;;;7.70;3.90;;;35.30;49.20;;;;;;6162754;23;20409;-88
2022/09/06 11:54:10;;;;;;;5.07;3.80;;;37.60;48.10;;;;;;6178216;23;20462;-87
2022/09/06 11:56:50;;;;;;;5.90;3.00;;;40.50;43.10;;;;;;6168348;23;20794;-87
2022/09/06 11:59:30;;;;;;;4.17;3.07;;;42.10;40.10;;;;;;6159394;23;20382;-87
2022/09/06 12:02:01;;;;;;;3.50;3.17;;;43.20;38.60;;;;;;6170206;23;20403;-86
2022/09/06 12:05:06;;;;;;;3.70;3.40;;;43.80;37.10;;;;;;6164325;23;20397;-87
2022/09/06 12:07:34;;;;;;;4.27;3.40;;;44.20;36.30;;;;;;6159055;23;20383;-87
2022/09/06 12:10:02;;;;;;;7.33;3.70;;;44.30;35.80;;;;;;6155248;23;20936;-86
2022/09/06 12:12:45;;;;;;;4.60;3.47;;;44.40;35.30;;;;;;6158389;23;20431;-87
2022/09/06 12:15:28;;;;;;;6.17;3.97;;;43.80;35.70;;;;;;6158134;23;20431;-88
2022/09/06 12:17:55;;;;;;;4.60;3.57;;;42.10;36.90;;;;;;6159198;23;20396;-86
2022/09/06 12:21:11;;;;;;;7.63;3.80;;;41.20;39.10;;;;;;6174061;23;20460;-87
2022/09/06 12:23:47;;;;;;;5.03;3.83;;;41.90;38.90;;;;;;6038770;23;20429;-88
2022/09/06 12:26:48;;;;;;;7.40;4.47;;;40.80;39.30;;;;;;6064894;23;20470;-86
2022/09/06 12:29:15;;;;;;;9.80;3.80;;;39.60;41.30;;;;;;6161377;23;20731;-86
2022/09/06 12:31:44;;;;;;;6.40;4.50;;;38.30;43.10;;;;;;6158251;23;20491;-86
2022/09/06 12:34:22;;;;;;;5.80;4.73;;;37.20;45.30;;;;;;6158478;23;20470;-85
2022/09/06 12:37:00;;;;;;;9.10;5.87;;;36.20;50.00;;;;;;6156260;23;20796;-87
2022/09/06 12:39:27;;;;;;;8.27;6.30;;;35.20;55.50;;;;;;6156565;23;20442;-86
2022/09/06 12:42:00;;;;;;;8.47;5.33;;;34.30;59.60;;;;;;6171311;23;20389;-85
2022/09/06 12:44:34;;;;;;;7.83;4.73;;;33.50;59.90;;;;;;6169727;23;20395;-86
2022/09/06 12:47:10;;;;;;;11.20;6.47;;;32.70;65.70;;;;;;6165673;23;20440;-86
2022/09/06 12:49:37;;;;;;;6.57;5.20;;;31.80;70.90;;;;;;6158956;23;20712;-86
2022/09/06 12:52:11;;;;;;;10.20;6.00;;;30.90;74.00;;;;;;6173580;23;20389;-87
2022/09/06 12:54:47;;;;;;;6.70;6.10;;;30.50;79.00;;;;;;6180636;23;20387;-86
2022/09/06 12:57:19;;;;;;;11.00;6.80;;;30.10;85.60;;;;;;6175331;23;20423;-87
2022/09/06 12:59:52;;;;;;;7.30;5.67;;;29.80;90.00;;;;;;6161748;23;20889;-87